• Join FlightAware (Why Join?)
  • Login
  • US Flag 
09:41AM EST


 

Airport Tracker/Info


-or-


 

Live Flight TrackerFlight Track Log ✈ SWA1411 ✈ 02-May-2012 ✈ KLAX - KSTL

Flight Track Log - Related Links

Times and Time Zones

All times are in EDT time to prevent confusion due to time zone crossing. See the SWA1411 flight status page for this flight to view local times or setup timezone preferences in your user account.

Time Position Orientation Groundspeed Altitude Reporting Facility
EDT Latitude Longitude Course Direction KTS MPH feet Rate Location/Type
03:19PM 33.9500 -118.4667 256° West 178 205 1,500  Level Southern California TRACON
03:21PM 33.9297 -118.5647 158° South 217 250 4,100 1,980 Climbing Los Angeles Center
03:22PM 33.8697 -118.5356 56° Northeast 132 152 6,200 2,580 Climbing Los Angeles Center
03:23PM 33.9128 -118.4592 50° Northeast 120 138 9,300 2,100 Climbing Los Angeles Center
03:24PM 33.9558 -118.3975 56° Northeast 191 220 10,500 1,200 Climbing Los Angeles Center
03:25PM 34.0097 -118.3014 56° Northeast 275 316 11,700 1,860 Climbing Los Angeles Center
03:26PM 34.0678 -118.1975 55° Northeast 317 365 14,300 2,220 Climbing Los Angeles Center
03:27PM 34.1303 -118.0911 56° Northeast 352 405 16,200 2,160 Climbing Los Angeles Center
03:28PM 34.1947 -117.9772 56° Northeast 368 423 18,600 1,920 Climbing Los Angeles Center
03:29PM 34.2567 -117.8681 58° Northeast 375 432 20,100 1,500 Climbing Los Angeles Center
03:30PM 34.3167 -117.7536 56° Northeast 393 452 21,700 1,560 Climbing Los Angeles Center
03:31PM 34.3808 -117.6364 54° Northeast 403 464 23,300 1,500 Climbing Los Angeles Center
03:32PM 34.4492 -117.5219 49° Northeast 408 470 24,700 1,440 Climbing Los Angeles Center
03:33PM 34.5253 -117.4147 49° Northeast 415 478 26,200 1,320 Climbing Los Angeles Center
03:34PM 34.6036 -117.3047 49° Northeast 421 484 27,400 1,320 Climbing Los Angeles Center
03:35PM 34.6819 -117.1947 50° Northeast 426 490 28,900 1,500 Climbing Los Angeles Center
03:36PM 34.7581 -117.0844 49° Northeast 426 490 30,500 1,200 Climbing Los Angeles Center
03:37PM 34.8319 -116.9792 49° Northeast 426 490 31,400 900 Climbing Los Angeles Center
03:38PM 34.9078 -116.8711 48° Northeast 426 490 32,300 840 Climbing Los Angeles Center
03:39PM 34.9875 -116.7628 50° Northeast 426 490 33,100 660 Climbing Los Angeles Center
03:40PM 35.0633 -116.6517 50° Northeast 426 490 33,700 720 Climbing Los Angeles Center
03:41PM 35.1408 -116.5378 49° Northeast 426 490 34,600 600 Climbing Los Angeles Center
03:42PM 35.2206 -116.4264 50° Northeast 426 490 35,000 180 Climbing Los Angeles Center
03:43PM 35.2958 -116.3147 49° Northeast 426 490 35,000  Level Los Angeles Center
03:44PM 35.3775 -116.1978 50° Northeast 431 496 35,000  Level Los Angeles Center
03:45PM 35.4589 -116.0806 50° Northeast 431 496 35,000  Level Los Angeles Center
03:46PM 35.5381 -115.9656 70° East 431 496 35,000  Level Los Angeles Center
03:47PM 35.5817 -115.8200 74° East 437 503 35,000  Level Los Angeles Center
03:48PM 35.6167 -115.6742 76° East 437 503 35,000  Level Los Angeles Center
03:49PM 35.6472 -115.5233 74° East 442 509 35,000  Level Los Angeles Center
03:50PM 35.6819 -115.3719 75° East 447 514 35,000  Level Los Angeles Center
03:51PM 35.7164 -115.2183 76° East 454 522 35,000  Level Los Angeles Center
03:52PM 35.7464 -115.0669 74° East 454 522 35,000  Level Los Angeles Center
03:53PM 35.7825 -114.9103 75° East 454 522 35,000  Level Los Angeles Center
03:54PM 35.8164 -114.7586 75° East 454 522 35,000  Level Los Angeles Center
03:55PM 35.8500 -114.6044 75° East 454 522 35,000  Level Los Angeles Center
03:56PM 35.8833 -114.4475 76° East 454 522 35,000  Level Los Angeles Center
03:57PM 35.9125 -114.3033 75° East 467 537 35,000  Level Los Angeles Center
03:58PM 35.9475 -114.1383 75° East 467 537 35,000  Level Los Angeles Center
03:59PM 35.9806 -113.9808 75° East 467 537 35,000  Level Los Angeles Center
04:00PM 36.0111 -113.8389 74° East 474 545 35,000  Level Los Angeles Center
04:01PM 36.0478 -113.6811 76° East 474 545 35,000  Level Los Angeles Center
04:02PM 36.0800 -113.5261 77° East 474 545 35,000  Level Los Angeles Center
04:03PM 36.1119 -113.3578 77° East 468 539 35,000  Level Los Angeles Center
04:04PM 36.1397 -113.2053 76° East 461 531 35,000  Level Los Angeles Center
04:05PM 36.1711 -113.0472 76° East 456 525 35,000  Level Los Angeles Center
04:06PM 36.2025 -112.8864 77° East 456 525 35,000  Level Los Angeles Center
04:07PM 36.2317 -112.7281 76° East 461 531 35,000  Level Los Angeles Center
04:08PM 36.2625 -112.5722 76° East 461 531 35,000  Level Los Angeles Center
04:09PM 36.2897 -112.4344 77° East 466 536 35,000  Level Los Angeles Center
04:10PM 36.3183 -112.2761 77° East 466 536 35,000  Level Los Angeles Center
04:12PM 36.3697 -111.9933 77° East 473 544 35,000  Level Denver Center
04:13PM 36.3981 -111.8356 77° East 467 537 35,000  Level Denver Center
04:14PM 36.4261 -111.6803 77° East 467 537 35,000  Level Denver Center
04:15PM 36.4592 -111.5072 77° East 467 537 35,000  Level Denver Center
04:16PM 36.4889 -111.3467 78° East 467 537 35,000  Level Denver Center
04:17PM 36.5144 -111.1908 76° East 467 537 35,000  Level Denver Center
04:18PM 36.5458 -111.0328 78° East 467 537 35,000  Level Denver Center
04:20PM 36.5997 -110.7208 77° East 467 537 35,000  Level Denver Center
04:21PM 36.6283 -110.5622 79° East 467 537 35,000  Level Denver Center
04:22PM 36.6503 -110.4186 77° East 467 537 35,000  Level Denver Center
04:23PM 36.6806 -110.2597 77° East 467 537 35,000  Level Denver Center
04:24PM 36.7089 -110.1008 79° East 467 537 35,000  Level Denver Center
04:25PM 36.7325 -109.9442 77° East 462 532 35,000  Level Denver Center
04:26PM 36.7622 -109.7847 80° East 468 539 35,000  Level Denver Center
04:27PM 36.7856 -109.6253 75° East 468 539 35,000  Level Denver Center
04:28PM 36.8189 -109.4661 78° East 468 539 35,000  Level Denver Center
04:29PM 36.8458 -109.3117 79° East 451 519 35,000  Level Denver Center
04:30PM 36.8731 -109.1364 79° East 462 532 35,000  Level Denver Center
04:31PM 36.8978 -108.9739 78° East 464 534 35,000  Level Denver Center
04:32PM 36.9214 -108.8344 79° East 469 540 35,000  Level Denver Center
04:33PM 36.9500 -108.6561 79° East 469 540 35,000  Level Denver Center
04:34PM 36.9739 -108.4986 80° East 463 533 35,000  Level Denver Center
04:35PM 36.9975 -108.3356 78° East 462 532 35,000  Level Denver Center
04:36PM 37.0206 -108.1958 79° East 465 535 35,000  Level Denver Center
04:37PM 37.0481 -108.0197 80° East 460 529 35,000  Level Denver Center
04:38PM 37.0708 -107.8617 79° East 459 528 35,000  Level Denver Center
04:39PM 37.0958 -107.6981 80° East 464 534 35,000  Level Denver Center
04:40PM 37.1158 -107.5581 79° East 464 534 35,000  Level Denver Center
04:41PM 37.1425 -107.3786 79° East 470 541 35,000  Level Denver Center
04:42PM 37.1667 -107.2203 79° East 465 535 35,000  Level Denver Center
04:43PM 37.1906 -107.0642 80° East 467 537 35,000  Level Denver Center
04:44PM 37.2100 -106.9236 80° East 467 537 35,000  Level Denver Center
04:45PM 37.2333 -106.7597 80° East 467 537 35,000  Level Denver Center
04:46PM 37.2544 -106.6006 80° East 467 537 35,000  Level Denver Center
04:47PM 37.2775 -106.4417 81° East 467 537 35,000  Level Denver Center
04:48PM 37.2983 -106.2694 80° East 468 539 35,000  Level Denver Center
04:49PM 37.3186 -106.1258 81° East 468 539 35,000  Level Denver Center
04:50PM 37.3408 -105.9511 81° East 463 533 35,000  Level Denver Center
04:51PM 37.3611 -105.7942 80° East 463 533 35,000  Level Denver Center
04:52PM 37.3808 -105.6531 80° East 463 533 35,000  Level Denver Center
04:53PM 37.4025 -105.4961 81° East 463 533 35,000  Level Denver Center
04:54PM 37.4239 -105.3206 81° East 463 533 35,000  Level Denver Center
04:55PM 37.4431 -105.1636 80° East 463 533 35,000  Level Denver Center
04:56PM 37.4622 -105.0194 81° East 463 533 35,000  Level Denver Center
04:57PM 37.4808 -104.8622 81° East 463 533 35,000  Level Denver Center
04:58PM 37.5033 -104.6889 82° East 463 533 35,000  Level Denver Center
04:59PM 37.5217 -104.5314 81° East 463 533 35,000  Level Denver Center
05:00PM 37.5400 -104.3897 81° East 463 533 35,000  Level Denver Center
05:01PM 37.5600 -104.2347 82° East 463 533 35,000  Level Denver Center
05:02PM 37.5794 -104.0611 81° East 456 525 35,000  Level Denver Center
05:03PM 37.5972 -103.9192 82° East 456 525 35,000  Level Denver Center
05:04PM 37.6161 -103.7508 81° East 448 516 35,000  Level Denver Center
05:05PM 37.6353 -103.5928 83° East 448 516 35,000  Level Denver Center
05:06PM 37.6483 -103.4533 81° East 448 516 35,000  Level Denver Center
05:07PM 37.6669 -103.2953 82° East 448 516 35,000  Level Denver Center
05:08PM 37.6869 -103.1239 83° East 448 516 35,000  Level Denver Center
05:10PM 37.7161 -102.8347 82° East 461 531 35,000  Level Kansas City Center
05:11PM 37.7342 -102.6633 81° East 455 524 35,000  Level Kansas City Center
05:12PM 37.7533 -102.5050 84° East 460 529 35,000  Level Kansas City Center
05:13PM 37.7653 -102.3592 82° East 460 529 35,000  Level Kansas City Center
05:14PM 37.7817 -102.2031 83° East 460 529 35,000  Level Kansas City Center
05:15PM 37.7989 -102.0289 83° East 455 524 35,000  Level Kansas City Center
05:16PM 37.8153 -101.8675 83° East 455 524 35,000  Level Kansas City Center
05:17PM 37.8281 -101.7267 83° East 460 529 35,000  Level Kansas City Center
05:18PM 37.8439 -101.5678 83° East 460 529 35,000  Level Kansas City Center
05:19PM 37.8606 -101.3903 83° East 460 529 35,000  Level Kansas City Center
05:20PM 37.8758 -101.2339 83° East 455 524 35,000  Level Kansas City Center
05:21PM 37.8911 -101.0719 84° East 460 529 35,000  Level Kansas City Center
05:22PM 37.9031 -100.9283 83° East 460 529 35,000  Level Kansas City Center
05:23PM 37.9181 -100.7636 84° East 460 529 35,000  Level Kansas City Center
05:24PM 37.9314 -100.5883 84° East 460 529 35,000  Level Kansas City Center
05:25PM 37.9436 -100.4286 84° East 460 529 35,000  Level Kansas City Center
05:26PM 37.9550 -100.2819 84° East 460 529 35,000  Level Kansas City Center
05:27PM 37.9686 -100.1250 85° East 455 524 35,000  Level Kansas City Center
05:28PM 37.9811 -99.9494 84° East 454 522 35,000  Level Kansas City Center
05:29PM 37.9944 -99.7894 86° East 460 529 35,000  Level Kansas City Center
05:30PM 38.0028 -99.6453 82° East 460 529 35,000  Level Kansas City Center
05:31PM 38.0197 -99.4908 86° East 455 524 35,000  Level Kansas City Center
05:32PM 38.0286 -99.3306 85° East 450 518 35,000  Level Kansas City Center
05:33PM 38.0389 -99.1756 83° East 450 518 35,000  Level Kansas City Center
05:34PM 38.0533 -99.0156 86° East 450 518 35,000  Level Kansas City Center
05:35PM 38.0611 -98.8606 85° East 445 512 35,000  Level Kansas City Center
05:36PM 38.0711 -98.7028 85° East 440 506 35,000  Level Kansas City Center
05:37PM 38.0825 -98.5478 85° East 440 506 35,000  Level Kansas City Center
05:38PM 38.0919 -98.3953 86° East 440 506 35,000  Level Kansas City Center
05:39PM 38.1011 -98.2372 87° East 440 506 35,000  Level Kansas City Center
05:40PM 38.1083 -98.0661 86° East 440 506 35,000  Level Kansas City Center
05:41PM 38.1167 -97.9242 84° East 440 506 35,000  Level Kansas City Center
05:42PM 38.1297 -97.7556 86° East 440 506 35,000  Level Kansas City Center
05:43PM 38.1375 -97.6186 86° East 440 506 35,000  Level Kansas City Center
05:44PM 38.1461 -97.4447 85° East 440 506 35,000  Level Kansas City Center
05:45PM 38.1561 -97.2894 86° East 440 506 35,000  Level Kansas City Center
05:46PM 38.1639 -97.1339 87° East 440 506 35,000  Level Kansas City Center
05:47PM 38.1711 -96.9783 86° East 440 506 35,000  Level Kansas City Center
05:48PM 38.1786 -96.8225 86° East 440 506 35,000  Level Kansas City Center
05:49PM 38.1878 -96.6697 88° East 440 506 35,000  Level Kansas City Center
05:50PM 38.1925 -96.5139 86° East 440 506 35,000  Level Kansas City Center
05:51PM 38.2011 -96.3583 87° East 440 506 35,000  Level Kansas City Center
05:52PM 38.2075 -96.2211 87° East 440 506 35,000  Level Kansas City Center
05:53PM 38.2139 -96.0467 86° East 440 506 35,000  Level Kansas City Center
05:54PM 38.2222 -95.8936 88° East 440 506 35,000  Level Kansas City Center
05:55PM 38.2258 -95.7431 87° East 435 501 35,000  Level Kansas City Center
05:56PM 38.2314 -95.6031 87° East 435 501 35,000  Level Kansas City Center
05:57PM 38.2369 -95.4444 87° East 442 509 35,000  Level Kansas City Center
05:58PM 38.2444 -95.2806 88° East 433 498 35,000  Level Kansas City Center
05:59PM 38.2494 -95.1167 88° East 440 506 35,000  Level Kansas City Center
06:00PM 38.2522 -94.9792 87° East 440 506 35,000  Level Kansas City Center
06:01PM 38.2589 -94.8075 87° East 440 506 35,000  Level Kansas City Center
06:02PM 38.2656 -94.6542 88° East 440 506 35,000  Level Kansas City Center
06:03PM 38.2697 -94.5114 80° East 440 506 35,000  Level Kansas City Center
06:04PM 38.2906 -94.3606 78° East 445 512 35,000  Level Kansas City Center
06:05PM 38.3172 -94.1936 75° East 437 503 35,000  Level Kansas City Center
06:06PM 38.3439 -94.0639 79° East 432 497 35,000  Level Kansas City Center
06:07PM 38.3664 -93.9103 77° East 426 490 35,000  Level Kansas City Center
06:08PM 38.3947 -93.7564 79° East 432 497 35,000  Level Kansas City Center
06:09PM 38.4164 -93.6075 79° East 431 496 35,000  Level Kansas City Center
06:10PM 38.4403 -93.4564 78° East 431 496 35,000  Level Kansas City Center
06:11PM 38.4658 -93.3019 80° East 431 496 35,000 -60 Level Kansas City Center
06:12PM 38.4872 -93.1506 78° East 431 496 34,900 -600 Descending Kansas City Center
06:13PM 38.5125 -92.9961 52° Northeast 431 496 33,900 -1,140 Descending Kansas City Center
06:14PM 38.5861 -92.8753 24° Northeast 417 480 32,700 -1,800 Descending Kansas City Center
06:15PM 38.6956 -92.8117 64° Northeast 403 464 30,300 -2,280 Descending Kansas City Center
06:16PM 38.7497 -92.6692 94° East 386 444 28,200 -2,040 Descending Kansas City Center
06:17PM 38.7408 -92.5017 91° East 402 463 26,300 3,360 Descending Kansas City Center
06:18PM 38.7381 -92.3475 93° East 420 483 35,000 -960 Climbing Kansas City Center
06:19PM 38.7314 -92.2039 91° East 420 483 24,400 -5,700 Descending Kansas City Center
06:20PM 38.7283 -92.0575 93° East 415 478 23,600 -900 Descending Kansas City Center
06:21PM 38.7233 -91.9219 94° East 400 460 22,600 -1,800 Descending Kansas City Center
06:22PM 38.7161 -91.7814 93° East 395 455 20,000 -2,760 Descending Kansas City Center
06:23PM 38.7108 -91.6431 91° East 390 449 17,100 -2,820 Descending Kansas City Center
06:23PM 38.7092 -91.5144 94° East 402 463 15,700 -2,340 Descending FAA TRACON SMA TRACON (SMA)
06:24PM 38.7042 -91.4172 93° East 394 453 14,300 -2,040 Descending FAA TRACON SMA TRACON (SMA)
06:24PM 38.7003 -91.3336 93° East 381 438 13,000 -2,400 Descending FAA TRACON SMA TRACON (SMA)
06:25PM 38.6967 -91.2400 93° East 380 437 11,100 -1,740 Descending FAA TRACON SMA TRACON (SMA)
06:26PM 38.6925 -91.1517 91° East 352 405 10,700 -840 Descending FAA TRACON SMA TRACON (SMA)
06:26PM 38.6917 -91.0794 90° East 327 376 10,000 -1,080 Descending FAA TRACON SMA TRACON (SMA)
06:27PM 38.6914 -91.0028 91° East 309 356 9,300 -1,080 Descending FAA TRACON SMA TRACON (SMA)
06:28PM 38.6906 -90.9261 77° East 312 359 8,600 -1,020 Descending FAA TRACON SMA TRACON (SMA)
06:28PM 38.7028 -90.8600 43° Northeast 316 364 8,000 -1,020 Descending FAA TRACON SMA TRACON (SMA)
06:29PM 38.7475 -90.8067 41° Northeast 319 367 7,300 -840 Descending FAA TRACON SMA TRACON (SMA)
06:30PM 38.7928 -90.7564 41° Northeast 311 358 6,900 -540 Descending FAA TRACON SMA TRACON (SMA)
06:30PM 38.8297 -90.7156 40° Northeast 286 329 6,600 -600 Descending FAA TRACON SMA TRACON (SMA)
06:31PM 38.8697 -90.6728 40° Northeast 268 308 6,100 -840 Descending FAA TRACON SMA TRACON (SMA)
06:32PM 38.9033 -90.6369 92° East 256 295 5,500 -960 Descending FAA TRACON SMA TRACON (SMA)
06:32PM 38.9019 -90.5889 146° Southeast 226 260 4,900 -900 Descending FAA TRACON SMA TRACON (SMA)
06:33PM 38.8722 -90.5631 129° Southeast 184 212 4,300 -1,020 Descending FAA TRACON SMA TRACON (SMA)
06:34PM 38.8497 -90.5269 124° Southeast 187 215 3,600 -780 Descending FAA TRACON SMA TRACON (SMA)
06:34PM 38.8333 -90.4958 122° Southeast 168 193 3,300 -540 Descending FAA TRACON SMA TRACON (SMA)
06:35PM 38.8156 -90.4594 122° Southeast 176 203 2,900 -780 Descending FAA TRACON SMA TRACON (SMA)
06:36PM 38.7997 -90.4269 122° Southeast 175 201 2,300 -840 Descending FAA TRACON SMA TRACON (SMA)
06:36PM 38.7831 -90.3931 122° Southeast 160 184 1,800 -840 Descending FAA TRACON SMA TRACON (SMA)
06:37PM 38.7678 -90.3622 123° Southeast 145 167 1,200 -780 Descending FAA TRACON SMA TRACON (SMA)
06:38PM 38.7544 -90.3358 123° Southeast 142 163 800 -600 Descending FAA TRACON SMA TRACON (SMA)